Sargents, CO (81248)

6:49 AM MST on January 26, 2015 (GMT -0700)
MesoWest PORPHYRY CREEK CO US SNOTEL | Change Station
CLOSE
Current Station
Personal Weather Station
Location: Sargents, CO
Elevation: 10760 ft
Nearby Weather Stations

Elev 10760 ft 38.49 °N, 106.34 °W | Updated 1 day ago

Clear
Clear
26 °F
Feels Like 18 °F
N
8
Wind Variable Wind from NNW
Gusts 15 mph

Today
High -- | Low -- °F
--% Chance of Precip.
Yesterday
High -- | Low -- °F
Precip. -- in
7:15 AM 5:20 PM
Waxing Crescent, 43% visible
Pressure 30.43 in
Visibility 10.0 miles
Clouds Clear
Windchill 18 °F
Dew Point 15 °F
Humidity 63%
Rainfall 0.00 in
Snow Depth Not available.
UV 0 out of 12
Pollen 1.80 out of 12
Air Quality Not available.
Flu Activity Not available.
METAR KAEJ 261335Z AUTO 28005KT 10SM CLR M03/M07 A3043 RMK AO2 T10261067

More Conditions Fewer Conditions

Pressure 30.43 in
Visibility 10.0 miles
Clouds Clear
Windchill 18 °F
Dew Point 15 °F
Humidity 63%
Rainfall 0.00 in
Snow Depth Not available.
UV 0 out of 12
Pollen 1.80 out of 12
Air Quality Not available.
Flu Activity Not available.
METAR KAEJ 261335Z AUTO 28005KT 10SM CLR M03/M07 A3043 RMK AO2 T10261067

More Conditions Fewer Conditions

10-Day Weather Forecast

Almanac

Astronomy

Jan. 26, 2015 Rise Set
Actual Time
Civil Twilight
Nautical Twilight
Astronomical Twilight
Moon
Length of Visible Light
Length of Day
Tomorrow will be .
, % of the Moon is Illuminated

Today's Extremes

State Highs State Lows

Community

WunderPhotos

Upload Photos

1,790,200 photos uploaded!

WunderBlogs® & News

Nearby

Air Quality

  Air Quality AQ Index Pollutant
Not available.

Snow Depth

Station Depth Elevation

Earthquake Activity

City Distance Mag. Time & Date
Minimum magnitude displayed is 2.5.

Coastal Water Temperatures

Place Temperature

Nearby Weather Stations